createdAt,value
2023-03-01T00:02:37.151Z,1.79
2023-03-01T00:06:41.583Z,1.85
2023-03-01T00:10:45.173Z,1.90
2023-03-01T00:14:50.563Z,2.00
2023-03-01T00:18:54.116Z,2.05
2023-03-01T00:22:58.611Z,2.13
2023-03-01T00:27:01.869Z,2.17
2023-03-01T00:31:06.663Z,2.21
2023-03-01T00:35:10.686Z,2.25
2023-03-01T00:39:17.806Z,2.28
2023-03-01T00:43:20.914Z,2.30
2023-03-01T00:47:24.380Z,2.30
2023-03-01T00:51:29.796Z,2.29
2023-03-01T00:55:34.450Z,2.30
2023-03-01T00:59:37.885Z,2.28
2023-03-01T01:03:41.146Z,2.24
2023-03-01T01:07:44.084Z,2.24
2023-03-01T01:11:51.121Z,2.21
2023-03-01T01:15:54.264Z,2.18
2023-03-01T01:19:57.303Z,2.14
2023-03-01T01:24:00.546Z,2.13
2023-03-01T01:28:05.761Z,2.10
2023-03-01T01:32:08.774Z,2.09
2023-03-01T01:36:12.379Z,2.07
2023-03-01T01:40:15.876Z,2.07
2023-03-01T01:44:23.274Z,2.05
2023-03-01T01:48:41.591Z,2.05
2023-03-01T01:52:45.148Z,2.04
2023-03-01T01:56:53.858Z,2.02
2023-03-01T02:00:58.321Z,2.00
2023-03-01T02:05:13.257Z,1.99
2023-03-01T02:09:19.132Z,1.97
2023-03-01T02:13:22.270Z,1.97
2023-03-01T02:17:27.460Z,1.96
2023-03-01T02:21:41.370Z,1.97
2023-03-01T02:25:53.164Z,1.97
2023-03-01T02:29:57.911Z,1.98
2023-03-01T02:34:01.191Z,1.97
2023-03-01T02:38:06.178Z,1.98
2023-03-01T02:42:12.674Z,2.00
2023-03-01T02:46:20.514Z,2.02
2023-03-01T02:50:55.780Z,2.02
2023-03-01T02:55:03.400Z,2.04
2023-03-01T02:59:07.659Z,2.04
2023-03-01T03:03:15.557Z,2.02
2023-03-01T03:07:19.166Z,2.00
2023-03-01T03:11:22.396Z,1.97
2023-03-01T03:15:26.699Z,1.95
2023-03-01T03:19:32.587Z,1.91
2023-03-01T03:23:36.953Z,1.87
2023-03-01T03:27:41.155Z,1.84
2023-03-01T03:31:44.074Z,1.80
2023-03-01T03:35:51.402Z,1.77
2023-03-01T03:39:55.869Z,1.74
2023-03-01T03:43:59.322Z,1.71
2023-03-01T03:48:02.675Z,1.66
2023-03-01T03:52:14.646Z,1.63
2023-03-01T03:56:17.557Z,1.58
2023-03-01T04:00:23.160Z,1.55
2023-03-01T04:04:26.086Z,1.51
2023-03-01T04:08:31.614Z,1.50
2023-03-01T04:12:35.288Z,1.48
2023-03-01T04:16:38.936Z,1.47
2023-03-01T04:20:41.964Z,1.47
2023-03-01T04:24:46.554Z,1.46
2023-03-01T04:28:51.781Z,1.44
2023-03-01T04:32:54.694Z,1.42
2023-03-01T04:36:58.513Z,1.40
2023-03-01T04:41:04.758Z,1.36
2023-03-01T04:45:14.267Z,1.35
2023-03-01T04:49:17.495Z,1.34
2023-03-01T04:53:21.477Z,1.33
2023-03-01T04:57:27.428Z,1.34
2023-03-01T05:01:30.473Z,1.33
2023-03-01T05:05:36.566Z,1.34
2023-03-01T05:09:39.795Z,1.33
2023-03-01T05:13:44.816Z,1.32
2023-03-01T05:17:48.475Z,1.35
2023-03-01T05:22:06.677Z,1.36
2023-03-01T05:26:25.906Z,1.34
2023-03-01T05:30:32.771Z,1.33
2023-03-01T05:34:38.056Z,1.31
2023-03-01T05:38:41.261Z,1.29
2023-03-01T05:42:46.065Z,1.28
2023-03-01T05:46:51.390Z,1.27
2023-03-01T05:50:54.424Z,1.25
2023-03-01T05:54:57.987Z,1.24
2023-03-01T05:59:01.640Z,1.25
2023-03-01T06:03:06.062Z,1.27
2023-03-01T06:07:09.466Z,1.28
2023-03-01T06:11:12.768Z,1.30
2023-03-01T06:15:18.212Z,1.35
2023-03-01T06:19:23.327Z,1.39
2023-03-01T06:23:26.725Z,1.45
2023-03-01T06:27:30.636Z,1.53
2023-03-01T06:31:33.577Z,1.65
2023-03-01T06:35:38.113Z,1.81
2023-03-01T06:39:41.464Z,1.98
2023-03-01T06:43:45.719Z,2.17
2023-03-01T06:47:49.172Z,2.36
2023-03-01T06:51:54.107Z,2.56
2023-03-01T06:55:57.978Z,2.72
2023-03-01T07:00:01.294Z,2.89
2023-03-01T07:04:04.357Z,3.02
2023-03-01T07:08:09.007Z,3.20
2023-03-01T07:12:12.159Z,3.47
2023-03-01T07:16:15.582Z,3.74
2023-03-01T07:20:26.957Z,4.04
2023-03-01T07:24:31.423Z,4.34
2023-03-01T07:28:37.290Z,4.65
2023-03-01T07:32:40.536Z,4.94
2023-03-01T07:36:44.379Z,5.24
2023-03-01T07:40:49.297Z,5.51
2023-03-01T07:44:52.652Z,5.74
2023-03-01T07:48:55.632Z,5.96
2023-03-01T07:52:58.966Z,6.13
2023-03-01T07:57:03.222Z,6.30
2023-03-01T08:01:14.981Z,6.48
2023-03-01T08:05:19.706Z,6.67
2023-03-01T08:09:25.693Z,6.85
2023-03-01T08:13:31.092Z,7.04
2023-03-01T08:17:34.021Z,7.20
2023-03-01T08:21:37.571Z,7.37
2023-03-01T08:25:40.810Z,7.61
2023-03-01T08:29:45.601Z,7.86
2023-03-01T08:33:51.820Z,8.09
2023-03-01T08:37:55.427Z,8.23
2023-03-01T08:41:59.291Z,8.32
2023-03-01T08:46:04.042Z,8.39
2023-03-01T08:50:08.147Z,8.46
2023-03-01T08:54:14.339Z,8.56
2023-03-01T08:58:17.282Z,8.66
2023-03-01T09:02:21.840Z,8.81
2023-03-01T09:06:24.976Z,8.97
2023-03-01T09:10:28.409Z,9.14
2023-03-01T09:14:31.800Z,9.25
2023-03-01T09:18:37.303Z,9.47
2023-03-01T09:22:40.221Z,9.58
2023-03-01T09:26:43.475Z,9.70
2023-03-01T09:30:46.454Z,9.78
2023-03-01T09:35:09.374Z,9.90
2023-03-01T09:39:12.787Z,9.94
2023-03-01T09:43:23.522Z,10.02
2023-03-01T09:47:33.004Z,10.09
2023-03-01T09:51:39.149Z,10.20
2023-03-01T09:55:46.513Z,10.31
2023-03-01T10:00:06.006Z,10.49
2023-03-01T10:04:26.872Z,10.64
2023-03-01T10:08:37.488Z,10.80
2023-03-01T10:12:45.042Z,10.94
2023-03-01T10:16:55.084Z,11.08
2023-03-01T10:21:01.942Z,11.20
2023-03-01T10:25:06.917Z,11.36
2023-03-01T10:29:11.622Z,11.47
2023-03-01T10:33:23.302Z,11.51
2023-03-01T10:37:28.485Z,11.55
2023-03-01T10:41:33.291Z,11.58
2023-03-01T10:45:39.793Z,11.68
2023-03-01T10:49:55.355Z,11.77
2023-03-01T10:53:58.439Z,11.91
2023-03-01T10:58:22.855Z,12.07
2023-03-01T11:02:30.884Z,12.15
2023-03-01T11:06:35.500Z,12.29
2023-03-01T11:10:39.159Z,12.38
2023-03-01T11:14:49.360Z,12.54
2023-03-01T11:18:59.434Z,12.64
2023-03-01T11:23:07.783Z,12.72
2023-03-01T11:27:21.694Z,12.74
2023-03-01T11:31:28.534Z,12.75
2023-03-01T11:35:34.641Z,12.84
2023-03-01T11:40:24.113Z,12.92
2023-03-01T11:44:31.941Z,13.04
2023-03-01T11:48:52.534Z,13.18
2023-03-01T11:53:06.991Z,13.29
2023-03-01T11:57:22.588Z,13.48
2023-03-01T12:01:45.115Z,13.54
2023-03-01T12:10:28.585Z,13.69
2023-03-01T12:14:44.624Z,13.78
2023-03-01T12:19:11.326Z,13.91
2023-03-01T12:23:37.642Z,14.07
2023-03-01T12:28:13.512Z,14.24
2023-03-01T12:32:37.568Z,14.36
2023-03-01T12:36:58.700Z,14.34
2023-03-01T12:41:18.402Z,14.25
2023-03-01T12:45:41.633Z,14.14
2023-03-01T12:49:50.752Z,13.98
2023-03-01T12:53:57.421Z,14.01
2023-03-01T12:58:11.749Z,13.96
2023-03-01T13:02:24.328Z,13.91
2023-03-01T13:06:43.472Z,13.86
2023-03-01T13:10:51.979Z,13.73
2023-03-01T13:14:56.600Z,13.71
2023-03-01T13:19:11.168Z,13.62
2023-03-01T13:23:27.622Z,13.59
2023-03-01T13:27:31.832Z,13.53
2023-03-01T13:32:03.071Z,13.55
2023-03-01T13:36:09.849Z,13.54
2023-03-01T13:40:46.586Z,13.52
2023-03-01T13:44:51.634Z,13.52
2023-03-01T13:48:59.030Z,13.46
2023-03-01T13:53:05.115Z,13.43
2023-03-01T13:57:08.300Z,13.37
2023-03-01T14:01:25.678Z,13.35
2023-03-01T14:05:29.413Z,13.34
2023-03-01T14:09:37.025Z,13.34
2023-03-01T14:13:54.658Z,13.37
2023-03-01T14:18:38.817Z,13.35
2023-03-01T14:22:46.045Z,13.33
2023-03-01T14:26:51.217Z,13.23
2023-03-01T14:30:56.572Z,13.14
2023-03-01T14:35:02.885Z,13.05
2023-03-01T14:39:19.615Z,12.99
2023-03-01T14:43:27.152Z,12.95
2023-03-01T14:47:33.218Z,12.93
2023-03-01T14:51:41.863Z,12.88
2023-03-01T14:55:48.797Z,12.84
2023-03-01T14:59:54.278Z,12.85
2023-03-01T15:03:57.713Z,12.81
2023-03-01T15:08:05.102Z,12.72
2023-03-01T15:12:38.172Z,12.61
2023-03-01T15:16:44.392Z,12.44
2023-03-01T15:20:48.117Z,12.33
2023-03-01T15:24:53.505Z,12.23
2023-03-01T15:29:00.326Z,12.13
2023-03-01T15:33:22.225Z,12.00
2023-03-01T15:37:41.929Z,11.93
2023-03-01T15:41:51.142Z,11.84
2023-03-01T15:45:59.707Z,11.74
2023-03-01T15:50:04.445Z,11.63
2023-03-01T15:54:14.088Z,11.50
2023-03-01T15:58:23.492Z,11.34
2023-03-01T16:02:26.869Z,11.15
2023-03-01T16:06:30.733Z,10.96
2023-03-01T16:10:35.070Z,10.75
2023-03-01T16:14:39.434Z,10.55
2023-03-01T16:18:42.882Z,10.37
2023-03-01T16:22:47.160Z,10.15
2023-03-01T16:26:50.543Z,9.98
2023-03-01T16:30:55.032Z,9.80
2023-03-01T16:34:58.285Z,9.62
2023-03-01T16:39:04.761Z,9.46
2023-03-01T16:43:09.139Z,9.31
2023-03-01T16:47:15.694Z,9.16
2023-03-01T16:51:19.590Z,8.99
2023-03-01T16:55:23.434Z,8.85
2023-03-01T16:59:26.449Z,8.72
2023-03-01T17:03:31.463Z,8.61
2023-03-01T17:07:35.529Z,8.48
2023-03-01T17:11:38.832Z,8.35
2023-03-01T17:15:42.388Z,8.24
2023-03-01T17:20:18.181Z,8.12
2023-03-01T17:24:21.199Z,8.03
2023-03-01T17:28:25.439Z,7.94
2023-03-01T17:32:28.650Z,7.87
2023-03-01T17:36:42.347Z,7.80
2023-03-01T17:40:47.202Z,7.69
2023-03-01T17:44:51.253Z,7.59
2023-03-01T17:48:54.290Z,7.51
2023-03-01T17:52:59.427Z,7.44
2023-03-01T17:57:02.570Z,7.38
2023-03-01T18:01:11.037Z,7.31
2023-03-01T18:05:14.168Z,7.24
2023-03-01T18:09:18.997Z,7.17
2023-03-01T18:13:21.931Z,7.08
2023-03-01T18:17:27.176Z,7.01
2023-03-01T18:21:31.220Z,6.91
2023-03-01T18:25:36.376Z,6.82
2023-03-01T18:29:39.426Z,6.74
2023-03-01T18:33:43.934Z,6.68
2023-03-01T18:37:47.256Z,6.63
2023-03-01T18:41:52.290Z,6.59
2023-03-01T18:45:59.092Z,6.57
2023-03-01T18:50:02.404Z,6.52
2023-03-01T18:54:05.687Z,6.46
2023-03-01T18:58:10.553Z,6.42
2023-03-01T19:02:15.745Z,6.37
2023-03-01T19:06:20.486Z,6.34
2023-03-01T19:10:23.874Z,6.34
2023-03-01T19:14:28.796Z,6.37
2023-03-01T19:18:32.155Z,6.40
2023-03-01T19:22:35.464Z,6.44
2023-03-01T19:26:41.851Z,6.47
2023-03-01T19:30:46.530Z,6.48
2023-03-01T19:34:50.134Z,6.45
2023-03-01T19:38:53.097Z,6.45
2023-03-01T19:42:56.645Z,6.43
2023-03-01T19:47:01.662Z,6.40
2023-03-01T19:51:05.466Z,6.39
2023-03-01T19:55:10.925Z,6.38
2023-03-01T19:59:15.494Z,6.38
2023-03-01T20:03:19.825Z,6.40
2023-03-01T20:07:23.388Z,6.40
2023-03-01T20:11:26.678Z,6.40
2023-03-01T20:15:31.030Z,6.40
2023-03-01T20:19:36.297Z,6.42
2023-03-01T20:23:41.836Z,6.40
2023-03-01T20:27:47.889Z,6.41
2023-03-01T20:31:51.012Z,6.41
2023-03-01T20:35:56.567Z,6.41
2023-03-01T20:39:59.749Z,6.40
2023-03-01T20:44:04.673Z,6.36
2023-03-01T20:48:09.899Z,6.31
2023-03-01T20:52:14.556Z,6.28
2023-03-01T20:56:20.454Z,6.25
2023-03-01T21:00:23.956Z,6.19
2023-03-01T21:04:27.512Z,6.14
2023-03-01T21:08:32.860Z,6.09
2023-03-01T21:12:36.174Z,6.08
2023-03-01T21:16:39.312Z,6.06
2023-03-01T21:20:43.198Z,6.05
2023-03-01T21:24:50.168Z,6.07
2023-03-01T21:28:57.271Z,6.04
2023-03-01T21:33:00.460Z,6.03
2023-03-01T21:37:04.136Z,6.02
2023-03-01T21:41:10.384Z,5.99
2023-03-01T21:45:13.259Z,5.97
2023-03-01T21:49:16.653Z,5.96
2023-03-01T21:53:19.549Z,5.94
2023-03-01T21:57:24.476Z,5.92
2023-03-01T22:01:29.924Z,5.91
2023-03-01T22:05:32.887Z,5.90
2023-03-01T22:09:36.537Z,5.91
2023-03-01T22:13:40.953Z,5.94
2023-03-01T22:17:44.224Z,5.97
2023-03-01T22:21:50.606Z,6.03
2023-03-01T22:25:53.550Z,6.04
2023-03-01T22:29:58.443Z,6.05
2023-03-01T22:34:02.263Z,6.03
2023-03-01T22:38:05.096Z,6.02
2023-03-01T22:42:08.438Z,5.94
2023-03-01T22:46:14.532Z,5.94
2023-03-01T22:50:18.402Z,5.89
2023-03-01T22:54:22.022Z,5.82
2023-03-01T22:58:25.528Z,5.78
2023-03-01T23:02:30.303Z,5.77
2023-03-01T23:06:35.062Z,5.67
2023-03-01T23:10:42.074Z,5.70
2023-03-01T23:14:45.880Z,5.65
2023-03-01T23:18:50.483Z,5.67
2023-03-01T23:22:53.368Z,5.65
2023-03-01T23:26:57.008Z,5.67
2023-03-01T23:31:02.498Z,5.69
2023-03-01T23:35:08.950Z,5.70
2023-03-01T23:39:13.593Z,5.71
2023-03-01T23:43:16.987Z,5.73
2023-03-01T23:47:19.994Z,5.75
2023-03-01T23:51:25.910Z,5.79
2023-03-01T23:55:30.164Z,5.80
2023-03-01T23:59:33.691Z,5.84
